Ballerina — SKNY — position and weather

sailwx.info

Track history (hours):
 
Tides and Currents Weather Stations Pressure Air Temp Water Temp Dewpoint Dewpoint Depression Visibility Wind Speed Wind Dir Waves Ship Positions

Ballerina

Last reported at 2017-May-26 18:12 UTC. Time now 2017-May-29 00:06 UTC.
Position N 59°20' E 018°05'.

Type: Passenger vessel. MMSI: 265550720.

Date/timePositionNaut miles runAvg speedWind from/ knotsBaromVisibWave heightAir tempDewpointWater temp
2017-May-26 18:12N 59°20' E 018°05'0 0.0
2017-May-26 18:00N 59°20' E 018°05'3 5.1
2017-May-26 17:30N 59°19' E 018°10'1 1.3
2017-May-26 17:00N 59°20' E 018°10'2 4.0
2017-May-26 16:30N 59°19' E 018°06'1 1.4
2017-May-26 16:00N 59°19' E 018°07'2 3.8
2017-May-26 15:29N 59°20' E 018°09'1 2.2
2017-May-26 14:59N 59°19' E 018°10'2 4.0
2017-May-26 14:29N 59°19' E 018°06'2 2.0
2017-May-26 13:30N 59°19' E 018°09'0 0.5
2017-May-26 13:00N 59°20' E 018°10'2 4.2
2017-May-26 12:31N 59°19' E 018°06'1 0.9
2017-May-26 11:58N 59°20' E 018°05'0 0.0
2017-May-26 11:28N 59°20' E 018°05'0 0.0
2017-May-26 11:01N 59°20' E 018°05'0 0.0
2017-May-26 10:31N 59°20' E 018°05'0 0.0
2017-May-26 09:55N 59°20' E 018°05'0 0.0
2017-May-26 09:31N 59°20' E 018°05'0 0.0
2017-May-26 08:58N 59°20' E 018°05'0 0.0
2017-May-26 08:28N 59°20' E 018°05'0 0.1
2017-May-26 07:58N 59°20' E 018°05'0 0.0
2017-May-26 07:28N 59°20' E 018°05'1 2.7
2017-May-26 07:00N 59°19' E 018°07'2 3.9
2017-May-26 06:30N 59°21' E 018°09'2 3.0
2017-May-26 06:00N 59°19' E 018°10'3 5.3
2017-May-26 05:30N 59°20' E 018°05'2 4.4
2017-May-26 05:00N 59°19' E 018°09'2 4.4
2017-May-26 04:30N 59°20' E 018°05'0 0.5
2017-May-26 04:00N 59°20' E 018°05'0 0.0
2017-May-24 17:59N 59°20' E 018°05'3 5.2
2017-May-24 17:30N 59°19' E 018°10'1 1.4
2017-May-24 17:00N 59°20' E 018°09'2 3.9
2017-May-24 16:29N 59°19' E 018°06'1 1.5
2017-May-24 16:00N 59°19' E 018°07'2 3.8
2017-May-24 15:30N 59°20' E 018°09'1 2.2
2017-May-24 14:58N 59°19' E 018°10'2 4.1
2017-May-24 14:29N 59°19' E 018°06'2 1.9
2017-May-24 13:29N 59°20' E 018°09'0 0.7
2017-May-24 12:59N 59°19' E 018°10'2 4.1
2017-May-24 12:30N 59°19' E 018°06'1 0.7
2017-May-24 11:44N 59°20' E 018°05'0 0.0
2017-May-24 11:26N 59°20' E 018°05'0 0.0
2017-May-24 10:55N 59°20' E 018°05'0 0.0
2017-May-24 10:25N 59°20' E 018°05'0 0.0
2017-May-24 09:56N 59°20' E 018°05'0 0.0
2017-May-24 09:25N 59°20' E 018°05'0 0.0
2017-May-24 08:49N 59°20' E 018°05'0 0.0
2017-May-24 08:25N 59°20' E 018°05'0 0.0
2017-May-24 07:49N 59°20' E 018°05'0 0.0
2017-May-24 07:27N 59°20' E 018°05'1 2.8
2017-May-24 07:00N 59°19' E 018°07'2 3.6
2017-May-24 06:30N 59°21' E 018°09'2 3.1
2017-May-24 06:00N 59°19' E 018°10'3 5.3
2017-May-24 05:30N 59°20' E 018°05'2 4.1
2017-May-24 05:00N 59°19' E 018°08'2 4.1
2017-May-24 04:30N 59°20' E 018°05'0 0.4
2017-May-24 03:57N 59°20' E 018°05'0 0.0
2017-May-23 18:09N 59°20' E 018°05'0 0.0
2017-May-23 18:00N 59°20' E 018°05'2 4.9
2017-May-23 17:30N 59°19' E 018°09'0 0.3
2017-May-23 17:00N 59°20' E 018°10'2 4.0
2017-May-23 16:29N 59°19' E 018°06'0 1.0
2017-May-23 16:00N 59°19' E 018°06'2 3.7
2017-May-23 15:30N 59°20' E 018°09'1 1.5
2017-May-23 15:00N 59°19' E 018°10'2 4.0
2017-May-23 14:30N 59°19' E 018°06'2 2.0
2017-May-23 13:30N 59°20' E 018°09'0 0.5
2017-May-23 13:01N 59°20' E 018°10'2 4.1
2017-May-23 12:30N 59°19' E 018°06'1 1.1
2017-May-23 11:53N 59°20' E 018°05'0 0.0
2017-May-23 08:25N 59°20' E 018°05'1 1.6
2017-May-23 07:53N 59°19' E 018°06'1 2.0
2017-May-23 07:27N 59°20' E 018°05'1 2.9
2017-May-23 07:00N 59°19' E 018°07'2 3.1
2017-May-23 06:26N 59°21' E 018°08'2 4.0
2017-May-23 06:00N 59°19' E 018°10'3 5.3
2017-May-23 05:30N 59°20' E 018°05'2 4.2
2017-May-23 05:00N 59°19' E 018°08'2 4.2
2017-May-23 04:30N 59°20' E 018°05'0 0.0
2017-May-22 18:03N 59°20' E 018°05'0 0.1
2017-May-22 18:00N 59°20' E 018°05'2 4.8
2017-May-22 17:29N 59°19' E 018°10'0 0.6
2017-May-22 17:00N 59°20' E 018°10'2 4.1
2017-May-22 16:30N 59°19' E 018°06'1 1.4
2017-May-22 16:00N 59°19' E 018°07'2 3.7
2017-May-22 15:30N 59°20' E 018°09'1 1.3
2017-May-22 14:59N 59°20' E 018°10'2 2.1
2017-May-22 14:00N 59°19' E 018°06'2 3.9
2017-May-22 13:30N 59°20' E 018°09'0 0.5
2017-May-22 13:00N 59°20' E 018°10'2 4.2
2017-May-22 12:30N 59°19' E 018°06'1 1.3
2017-May-22 11:58N 59°20' E 018°05'0 0.0
2017-May-22 11:28N 59°20' E 018°05'0 0.0
2017-May-22 10:58N 59°20' E 018°05'0 0.0
2017-May-22 10:29N 59°20' E 018°05'0 0.0
2017-May-22 09:59N 59°20' E 018°05'0 0.0
2017-May-22 09:29N 59°20' E 018°05'0 0.0
2017-May-22 08:59N 59°20' E 018°05'0 0.0
2017-May-22 08:29N 59°20' E 018°05'0 0.0
2017-May-22 07:59N 59°20' E 018°05'0 0.2
2017-May-22 07:30N 59°20' E 018°05'1 2.6
2017-May-22 07:00N 59°19' E 018°07'2 3.4
2017-May-22 06:30N 59°21' E 018°09'2 3.1
2017-May-22 06:00N 59°19' E 018°10'3 5.4
2017-May-22 05:30N 59°20' E 018°05'2 4.4
2017-May-22 04:59N 59°19' E 018°09'2 4.6
2017-May-22 04:30N 59°20' E 018°05'0 0.0
2017-May-21 18:31N 59°20' E 018°05'0 0.1
2017-May-21 18:28N 59°20' E 018°05'0 0.0
2017-May-21 17:58N 59°20' E 018°05'0 0.0
2017-May-21 17:30N 59°20' E 018°05'2 3.1
2017-May-21 17:00N 59°19' E 018°07'2 3.4
2017-May-21 16:28N 59°21' E 018°09'2 3.5
2017-May-21 16:00N 59°19' E 018°08'2 3.9
2017-May-21 15:30N 59°20' E 018°05'2 4.0
2017-May-21 15:00N 59°19' E 018°08'0 0.4
2017-May-21 14:00N 59°19' E 018°07'2 3.4
2017-May-21 13:30N 59°21' E 018°09'2 3.1
2017-May-21 13:00N 59°19' E 018°08'2 3.5
2017-May-21 12:28N 59°20' E 018°05'0 0.0
2017-May-21 12:00N 59°20' E 018°05'2 3.1
2017-May-21 11:30N 59°19' E 018°07'1 2.7
2017-May-21 11:00N 59°20' E 018°05'1 2.8
2017-May-21 10:30N 59°19' E 018°08'2 3.1
2017-May-21 09:59N 59°21' E 018°09'2 3.4
2017-May-21 09:30N 59°19' E 018°08'2 3.8
2017-May-21 08:59N 59°20' E 018°05'2 3.6
2017-May-21 08:30N 59°19' E 018°07'1 2.5
2017-May-21 08:00N 59°20' E 018°05'0 0.0
2017-May-20 17:52N 59°20' E 018°05'9 2.0
2017-May-20 13:19N 59°17' E 018°22'3 5.4
2017-May-20 12:45N 59°18' E 018°16'2 6.9
2017-May-20 12:30N 59°18' E 018°13'4 7.5
2017-May-20 11:59N 59°19' E 018°06'1 1.3
2017-May-20 11:26N 59°20' E 018°05'0 0.0
2017-May-19 19:00N 59°20' E 018°05'0 0.0
2017-May-19 18:24N 59°20' E 018°05'0 0.0
2017-May-19 18:00N 59°20' E 018°05'3 4.9
2017-May-19 17:29N 59°19' E 018°10'0 0.6
2017-May-19 17:00N 59°19' E 018°10'2 4.0
2017-May-19 16:30N 59°19' E 018°06'1 1.5
2017-May-19 16:00N 59°19' E 018°07'2 3.9
2017-May-19 15:28N 59°20' E 018°09'1 2.8
2017-May-19 14:59N 59°19' E 018°10'2 1.9
2017-May-19 14:00N 59°19' E 018°06'2 3.7
2017-May-19 13:30N 59°20' E 018°09'1 1.4
2017-May-19 12:59N 59°19' E 018°10'2 4.2
2017-May-19 12:31N 59°19' E 018°06'1 1.0
2017-May-19 11:58N 59°20' E 018°05'0 0.0
2017-May-19 11:28N 59°20' E 018°05'0 0.0
2017-May-19 10:58N 59°20' E 018°05'0 0.0
2017-May-19 10:28N 59°20' E 018°05'0 0.0
2017-May-19 09:58N 59°20' E 018°05'0 0.0
2017-May-19 09:28N 59°20' E 018°05'0 0.0
2017-May-19 08:58N 59°20' E 018°05'0 0.0
2017-May-19 08:28N 59°20' E 018°05'0 0.0
2017-May-19 07:58N 59°20' E 018°05'0 0.1
2017-May-19 07:30N 59°20' E 018°05'2 3.0
2017-May-19 07:00N 59°19' E 018°07'2 3.5
2017-May-19 06:30N 59°21' E 018°08'2 3.6
2017-May-19 06:00N 59°19' E 018°10'3 5.3
2017-May-19 05:30N 59°20' E 018°05'2 4.1
2017-May-19 05:00N 59°19' E 018°08'2 4.0
2017-May-19 04:30N 59°20' E 018°05'0 0.5
2017-May-19 03:58N 59°20' E 018°05'0 0.0
2017-May-18 18:29N 59°20' E 018°05'0 0.0
2017-May-18 18:00N 59°20' E 018°05'2 4.8
2017-May-18 17:30N 59°19' E 018°09'0 0.4
2017-May-18 17:00N 59°19' E 018°10'2 4.2
2017-May-18 16:30N 59°19' E 018°06'1 1.6
2017-May-18 16:01N 59°19' E 018°07'2 3.7
2017-May-18 15:31N 59°20' E 018°09'1 1.4
2017-May-18 15:00N 59°20' E 018°10'2 2.0
2017-May-18 14:00N 59°19' E 018°06'2 3.9
2017-May-18 13:30N 59°20' E 018°09'0 0.5
2017-May-18 13:00N 59°20' E 018°10'2 4.2
2017-May-18 12:30N 59°19' E 018°06'1 1.2
2017-May-18 11:59N 59°20' E 018°05'0 0.0
2017-May-18 11:29N 59°20' E 018°05'0 0.0
2017-May-18 10:59N 59°20' E 018°05'0 0.0
2017-May-18 10:29N 59°20' E 018°05'0 0.0
2017-May-18 09:59N 59°20' E 018°05'0 0.0
2017-May-18 09:29N 59°20' E 018°05'0 0.0
2017-May-18 08:59N 59°20' E 018°05'0 0.0
2017-May-18 08:29N 59°20' E 018°05'0 0.0
2017-May-18 07:59N 59°20' E 018°05'0 0.0
2017-May-18 07:30N 59°20' E 018°05'2 3.1
2017-May-18 07:00N 59°19' E 018°07'2 3.4
2017-May-18 06:30N 59°21' E 018°08'2 3.4
2017-May-18 06:00N 59°19' E 018°09'2 4.7
2017-May-18 05:30N 59°20' E 018°05'2 4.1
2017-May-18 05:00N 59°19' E 018°08'2 4.1
2017-May-18 04:30N 59°20' E 018°05'0 0.4
2017-May-18 03:58N 59°20' E 018°05'0 0.0
2017-May-17 18:23N 59°20' E 018°05'0 0.0
2017-May-17 17:59N 59°20' E 018°05'3 5.2
2017-May-17 17:30N 59°19' E 018°10'0 0.9
2017-May-17 17:00N 59°20' E 018°10'2 4.1
2017-May-17 16:30N 59°19' E 018°06'1 1.4
2017-May-17 16:00N 59°19' E 018°07'2 3.7
2017-May-17 15:30N 59°20' E 018°09'1 1.5
2017-May-17 14:58N 59°19' E 018°10'2 2.1
2017-May-17 14:00N 59°19' E 018°06'2 3.8
2017-May-17 13:30N 59°20' E 018°09'0 0.3
2017-May-17 13:00N 59°20' E 018°10'2 4.2
2017-May-17 12:31N 59°19' E 018°06'1 1.2
2017-May-17 11:59N 59°20' E 018°05'0 0.0
2017-May-17 11:29N 59°20' E 018°05'0 0.0
2017-May-17 10:59N 59°20' E 018°05'0 0.0
2017-May-17 10:29N 59°20' E 018°05'0 0.0
2017-May-17 09:59N 59°20' E 018°05'0 0.0
2017-May-17 09:29N 59°20' E 018°05'0 0.0
2017-May-17 08:59N 59°20' E 018°05'0 0.0
2017-May-17 08:29N 59°20' E 018°05'0 0.0
2017-May-17 07:59N 59°20' E 018°05'0 0.0
2017-May-17 07:29N 59°20' E 018°05'1 2.9
2017-May-17 07:00N 59°19' E 018°07'2 3.5
2017-May-17 06:30N 59°21' E 018°09'1 2.9
2017-May-17 06:00N 59°19' E 018°09'3 5.1
2017-May-17 05:30N 59°20' E 018°05'2 4.2
2017-May-17 05:00N 59°19' E 018°08'2 4.0
2017-May-17 04:30N 59°20' E 018°05'0 0.5
2017-May-17 04:00N 59°20' E 018°05'  
Track history (hours):
 
Tides and Currents Weather Stations Pressure Air Temp Water Temp Dewpoint Dewpoint Depression Visibility Wind Speed Wind Dir Waves Ship Positions

Ballerina

Last reported at 2017-May-26 18:12 UTC. Time now 2017-May-29 00:06 UTC.
Position N 59°20' E 018°05'.

Type: Passenger vessel. MMSI: 265550720.

Date/timePositionNaut miles runAvg speedWind from/ knotsBaromVisibWave heightAir tempDewpointWater temp
2017-May-26 18:12N 59°20' E 018°05'0 0.0
2017-May-26 18:00N 59°20' E 018°05'3 5.1
2017-May-26 17:30N 59°19' E 018°10'1 1.3
2017-May-26 17:00N 59°20' E 018°10'2 4.0
2017-May-26 16:30N 59°19' E 018°06'1 1.4
2017-May-26 16:00N 59°19' E 018°07'2 3.8
2017-May-26 15:29N 59°20' E 018°09'1 2.2
2017-May-26 14:59N 59°19' E 018°10'2 4.0
2017-May-26 14:29N 59°19' E 018°06'2 2.0
2017-May-26 13:30N 59°19' E 018°09'0 0.5
2017-May-26 13:00N 59°20' E 018°10'2 4.2
2017-May-26 12:31N 59°19' E 018°06'1 0.9
2017-May-26 11:58N 59°20' E 018°05'0 0.0
2017-May-26 11:28N 59°20' E 018°05'0 0.0
2017-May-26 11:01N 59°20' E 018°05'0 0.0
2017-May-26 10:31N 59°20' E 018°05'0 0.0
2017-May-26 09:55N 59°20' E 018°05'0 0.0
2017-May-26 09:31N 59°20' E 018°05'0 0.0
2017-May-26 08:58N 59°20' E 018°05'0 0.0
2017-May-26 08:28N 59°20' E 018°05'0 0.1
2017-May-26 07:58N 59°20' E 018°05'0 0.0
2017-May-26 07:28N 59°20' E 018°05'1 2.7
2017-May-26 07:00N 59°19' E 018°07'2 3.9
2017-May-26 06:30N 59°21' E 018°09'2 3.0
2017-May-26 06:00N 59°19' E 018°10'3 5.3
2017-May-26 05:30N 59°20' E 018°05'2 4.4
2017-May-26 05:00N 59°19' E 018°09'2 4.4
2017-May-26 04:30N 59°20' E 018°05'0 0.5
2017-May-26 04:00N 59°20' E 018°05'0 0.0
2017-May-24 17:59N 59°20' E 018°05'3 5.2
2017-May-24 17:30N 59°19' E 018°10'1 1.4
2017-May-24 17:00N 59°20' E 018°09'2 3.9
2017-May-24 16:29N 59°19' E 018°06'1 1.5
2017-May-24 16:00N 59°19' E 018°07'2 3.8
2017-May-24 15:30N 59°20' E 018°09'1 2.2
2017-May-24 14:58N 59°19' E 018°10'2 4.1
2017-May-24 14:29N 59°19' E 018°06'2 1.9
2017-May-24 13:29N 59°20' E 018°09'0 0.7
2017-May-24 12:59N 59°19' E 018°10'2 4.1
2017-May-24 12:30N 59°19' E 018°06'1 0.7
2017-May-24 11:44N 59°20' E 018°05'0 0.0
2017-May-24 11:26N 59°20' E 018°05'0 0.0
2017-May-24 10:55N 59°20' E 018°05'0 0.0
2017-May-24 10:25N 59°20' E 018°05'0 0.0
2017-May-24 09:56N 59°20' E 018°05'0 0.0
2017-May-24 09:25N 59°20' E 018°05'0 0.0
2017-May-24 08:49N 59°20' E 018°05'0 0.0
2017-May-24 08:25N 59°20' E 018°05'0 0.0
2017-May-24 07:49N 59°20' E 018°05'0 0.0
2017-May-24 07:27N 59°20' E 018°05'1 2.8
2017-May-24 07:00N 59°19' E 018°07'2 3.6
2017-May-24 06:30N 59°21' E 018°09'2 3.1
2017-May-24 06:00N 59°19' E 018°10'3 5.3
2017-May-24 05:30N 59°20' E 018°05'2 4.1
2017-May-24 05:00N 59°19' E 018°08'2 4.1
2017-May-24 04:30N 59°20' E 018°05'0 0.4
2017-May-24 03:57N 59°20' E 018°05'0 0.0
2017-May-23 18:09N 59°20' E 018°05'0 0.0
2017-May-23 18:00N 59°20' E 018°05'2 4.9
2017-May-23 17:30N 59°19' E 018°09'0 0.3
2017-May-23 17:00N 59°20' E 018°10'2 4.0
2017-May-23 16:29N 59°19' E 018°06'0 1.0
2017-May-23 16:00N 59°19' E 018°06'2 3.7
2017-May-23 15:30N 59°20' E 018°09'1 1.5
2017-May-23 15:00N 59°19' E 018°10'2 4.0
2017-May-23 14:30N 59°19' E 018°06'2 2.0
2017-May-23 13:30N 59°20' E 018°09'0 0.5
2017-May-23 13:01N 59°20' E 018°10'2 4.1
2017-May-23 12:30N 59°19' E 018°06'1 1.1
2017-May-23 11:53N 59°20' E 018°05'0 0.0
2017-May-23 08:25N 59°20' E 018°05'1 1.6
2017-May-23 07:53N 59°19' E 018°06'1 2.0
2017-May-23 07:27N 59°20' E 018°05'1 2.9
2017-May-23 07:00N 59°19' E 018°07'2 3.1
2017-May-23 06:26N 59°21' E 018°08'2 4.0
2017-May-23 06:00N 59°19' E 018°10'3 5.3
2017-May-23 05:30N 59°20' E 018°05'2 4.2
2017-May-23 05:00N 59°19' E 018°08'2 4.2
2017-May-23 04:30N 59°20' E 018°05'0 0.0
2017-May-22 18:03N 59°20' E 018°05'0 0.1
2017-May-22 18:00N 59°20' E 018°05'2 4.8
2017-May-22 17:29N 59°19' E 018°10'0 0.6
2017-May-22 17:00N 59°20' E 018°10'2 4.1
2017-May-22 16:30N 59°19' E 018°06'1 1.4
2017-May-22 16:00N 59°19' E 018°07'2 3.7
2017-May-22 15:30N 59°20' E 018°09'1 1.3
2017-May-22 14:59N 59°20' E 018°10'2 2.1
2017-May-22 14:00N 59°19' E 018°06'2 3.9
2017-May-22 13:30N 59°20' E 018°09'0 0.5
2017-May-22 13:00N 59°20' E 018°10'2 4.2
2017-May-22 12:30N 59°19' E 018°06'1 1.3
2017-May-22 11:58N 59°20' E 018°05'0 0.0
2017-May-22 11:28N 59°20' E 018°05'0 0.0
2017-May-22 10:58N 59°20' E 018°05'0 0.0
2017-May-22 10:29N 59°20' E 018°05'0 0.0
2017-May-22 09:59N 59°20' E 018°05'0 0.0
2017-May-22 09:29N 59°20' E 018°05'0 0.0
2017-May-22 08:59N 59°20' E 018°05'0 0.0
2017-May-22 08:29N 59°20' E 018°05'0 0.0
2017-May-22 07:59N 59°20' E 018°05'0 0.2
2017-May-22 07:30N 59°20' E 018°05'1 2.6
2017-May-22 07:00N 59°19' E 018°07'2 3.4
2017-May-22 06:30N 59°21' E 018°09'2 3.1
2017-May-22 06:00N 59°19' E 018°10'3 5.4
2017-May-22 05:30N 59°20' E 018°05'2 4.4
2017-May-22 04:59N 59°19' E 018°09'2 4.6
2017-May-22 04:30N 59°20' E 018°05'0 0.0
2017-May-21 18:31N 59°20' E 018°05'0 0.1
2017-May-21 18:28N 59°20' E 018°05'0 0.0
2017-May-21 17:58N 59°20' E 018°05'0 0.0
2017-May-21 17:30N 59°20' E 018°05'2 3.1
2017-May-21 17:00N 59°19' E 018°07'2 3.4
2017-May-21 16:28N 59°21' E 018°09'2 3.5
2017-May-21 16:00N 59°19' E 018°08'2 3.9
2017-May-21 15:30N 59°20' E 018°05'2 4.0
2017-May-21 15:00N 59°19' E 018°08'0 0.4
2017-May-21 14:00N 59°19' E 018°07'2 3.4
2017-May-21 13:30N 59°21' E 018°09'2 3.1
2017-May-21 13:00N 59°19' E 018°08'2 3.5
2017-May-21 12:28N 59°20' E 018°05'0 0.0
2017-May-21 12:00N 59°20' E 018°05'2 3.1
2017-May-21 11:30N 59°19' E 018°07'1 2.7
2017-May-21 11:00N 59°20' E 018°05'1 2.8
2017-May-21 10:30N 59°19' E 018°08'2 3.1
2017-May-21 09:59N 59°21' E 018°09'2 3.4
2017-May-21 09:30N 59°19' E 018°08'2 3.8
2017-May-21 08:59N 59°20' E 018°05'2 3.6
2017-May-21 08:30N 59°19' E 018°07'1 2.5
2017-May-21 08:00N 59°20' E 018°05'0 0.0
2017-May-20 17:52N 59°20' E 018°05'9 2.0
2017-May-20 13:19N 59°17' E 018°22'3 5.4
2017-May-20 12:45N 59°18' E 018°16'2 6.9
2017-May-20 12:30N 59°18' E 018°13'4 7.5
2017-May-20 11:59N 59°19' E 018°06'1 1.3
2017-May-20 11:26N 59°20' E 018°05'0 0.0
2017-May-19 19:00N 59°20' E 018°05'0 0.0
2017-May-19 18:24N 59°20' E 018°05'0 0.0
2017-May-19 18:00N 59°20' E 018°05'3 4.9
2017-May-19 17:29N 59°19' E 018°10'0 0.6
2017-May-19 17:00N 59°19' E 018°10'2 4.0
2017-May-19 16:30N 59°19' E 018°06'1 1.5
2017-May-19 16:00N 59°19' E 018°07'2 3.9
2017-May-19 15:28N 59°20' E 018°09'1 2.8
2017-May-19 14:59N 59°19' E 018°10'2 1.9
2017-May-19 14:00N 59°19' E 018°06'2 3.7
2017-May-19 13:30N 59°20' E 018°09'1 1.4
2017-May-19 12:59N 59°19' E 018°10'2 4.2
2017-May-19 12:31N 59°19' E 018°06'1 1.0
2017-May-19 11:58N 59°20' E 018°05'0 0.0
2017-May-19 11:28N 59°20' E 018°05'0 0.0
2017-May-19 10:58N 59°20' E 018°05'0 0.0
2017-May-19 10:28N 59°20' E 018°05'0 0.0
2017-May-19 09:58N 59°20' E 018°05'0 0.0
2017-May-19 09:28N 59°20' E 018°05'0 0.0
2017-May-19 08:58N 59°20' E 018°05'0 0.0
2017-May-19 08:28N 59°20' E 018°05'0 0.0
2017-May-19 07:58N 59°20' E 018°05'0 0.1
2017-May-19 07:30N 59°20' E 018°05'2 3.0
2017-May-19 07:00N 59°19' E 018°07'2 3.5
2017-May-19 06:30N 59°21' E 018°08'2 3.6
2017-May-19 06:00N 59°19' E 018°10'3 5.3
2017-May-19 05:30N 59°20' E 018°05'2 4.1
2017-May-19 05:00N 59°19' E 018°08'2 4.0
2017-May-19 04:30N 59°20' E 018°05'0 0.5
2017-May-19 03:58N 59°20' E 018°05'0 0.0
2017-May-18 18:29N 59°20' E 018°05'0 0.0
2017-May-18 18:00N 59°20' E 018°05'2 4.8
2017-May-18 17:30N 59°19' E 018°09'0 0.4
2017-May-18 17:00N 59°19' E 018°10'2 4.2
2017-May-18 16:30N 59°19' E 018°06'1 1.6
2017-May-18 16:01N 59°19' E 018°07'2 3.7
2017-May-18 15:31N 59°20' E 018°09'1 1.4
2017-May-18 15:00N 59°20' E 018°10'2 2.0
2017-May-18 14:00N 59°19' E 018°06'2 3.9
2017-May-18 13:30N 59°20' E 018°09'0 0.5
2017-May-18 13:00N 59°20' E 018°10'2 4.2
2017-May-18 12:30N 59°19' E 018°06'1 1.2
2017-May-18 11:59N 59°20' E 018°05'0 0.0
2017-May-18 11:29N 59°20' E 018°05'0 0.0
2017-May-18 10:59N 59°20' E 018°05'0 0.0
2017-May-18 10:29N 59°20' E 018°05'0 0.0
2017-May-18 09:59N 59°20' E 018°05'0 0.0
2017-May-18 09:29N 59°20' E 018°05'0 0.0
2017-May-18 08:59N 59°20' E 018°05'0 0.0
2017-May-18 08:29N 59°20' E 018°05'0 0.0
2017-May-18 07:59N 59°20' E 018°05'0 0.0
2017-May-18 07:30N 59°20' E 018°05'2 3.1
2017-May-18 07:00N 59°19' E 018°07'2 3.4
2017-May-18 06:30N 59°21' E 018°08'2 3.4
2017-May-18 06:00N 59°19' E 018°09'2 4.7
2017-May-18 05:30N 59°20' E 018°05'2 4.1
2017-May-18 05:00N 59°19' E 018°08'2 4.1
2017-May-18 04:30N 59°20' E 018°05'0 0.4
2017-May-18 03:58N 59°20' E 018°05'0 0.0
2017-May-17 18:23N 59°20' E 018°05'0 0.0
2017-May-17 17:59N 59°20' E 018°05'3 5.2
2017-May-17 17:30N 59°19' E 018°10'0 0.9
2017-May-17 17:00N 59°20' E 018°10'2 4.1
2017-May-17 16:30N 59°19' E 018°06'1 1.4
2017-May-17 16:00N 59°19' E 018°07'2 3.7
2017-May-17 15:30N 59°20' E 018°09'1 1.5
2017-May-17 14:58N 59°19' E 018°10'2 2.1
2017-May-17 14:00N 59°19' E 018°06'2 3.8
2017-May-17 13:30N 59°20' E 018°09'0 0.3
2017-May-17 13:00N 59°20' E 018°10'2 4.2
2017-May-17 12:31N 59°19' E 018°06'1 1.2
2017-May-17 11:59N 59°20' E 018°05'0 0.0
2017-May-17 11:29N 59°20' E 018°05'0 0.0
2017-May-17 10:59N 59°20' E 018°05'0 0.0
2017-May-17 10:29N 59°20' E 018°05'0 0.0
2017-May-17 09:59N 59°20' E 018°05'0 0.0
2017-May-17 09:29N 59°20' E 018°05'0 0.0
2017-May-17 08:59N 59°20' E 018°05'0 0.0
2017-May-17 08:29N 59°20' E 018°05'0 0.0
2017-May-17 07:59N 59°20' E 018°05'0 0.0
2017-May-17 07:29N 59°20' E 018°05'1 2.9
2017-May-17 07:00N 59°19' E 018°07'2 3.5
2017-May-17 06:30N 59°21' E 018°09'1 2.9
2017-May-17 06:00N 59°19' E 018°09'3 5.1
2017-May-17 05:30N 59°20' E 018°05'2 4.2
2017-May-17 05:00N 59°19' E 018°08'2 4.0
2017-May-17 04:30N 59°20' E 018°05'0 0.5
2017-May-17 04:00N 59°20' E 018°05'  

Dump ship's entire track history